»·PEaware :: ASA62 PAJN-PASI

ASA62 :: PAJN-PASI

FLIGHT INFORMATION

Flight Status: Arrived
Operator:
Alaska Airlines
More flights by this operator :: More flights under this callsign
Pilot: Cooper L. (8467)
Aircraft: BOEING 737-800
(B738)
More flights by this aircraft type
Origin: PAJN Juneau Intl
United States
Destination: PASI Sitka Rocky Gutierrez
United States
More flights between these airports :: More routes between these airports
Route: JNU5 SSR CLUCK
File this flight plan on PilotEdge
Remarks:
Altitude:
(Current/Filed)
13,000ft
Speed:
(Current/Filed)
325kts
Departed: 21-May-17 10:23 AM
Arrived: 21-May-17 11:06 AM
Distance/Time
Traveled:
82nm/0:43
Distance/Time
To Go:
Arrived

Flight Plot

Page will automatically refresh every two minutes.

Flight plan parsing failed; only flown route is shown


Map Options




Map Legend


Flown Route
Filed Route
Departure Airport
Arrival Airport
Navaid (VOR, NDB)
Fix

Horizontal Profiles

Position Reports

Time Latitude Longitude Heading Altitude Ground
Speed
21-May-17 10:12 58.358123 -134.582954 0 17ft 0kts
21-May-17 10:13 58.358123 -134.582954 0 17ft 0kts
21-May-17 10:14 58.358123 -134.582955 0 17ft 0kts
21-May-17 10:15 58.358123 -134.582955 0 17ft 0kts
21-May-17 10:16 58.358123 -134.582954 0 17ft 0kts
21-May-17 10:17 58.357461 -134.582703 301 17ft 3kts
21-May-17 10:18 58.357422 -134.582380 269 17ft 0kts
21-May-17 10:19 58.357422 -134.582380 269 17ft 0kts
21-May-17 10:20 58.357422 -134.582380 269 17ft 0kts
21-May-17 10:21 58.357895 -134.589284 285 14ft 27kts
21-May-17 10:22 58.358754 -134.595520 282 11ft 2kts
21-May-17 10:23 58.358766 -134.595803 255 11ft 3kts
21-May-17 10:24 58.357283 -134.592881 104 13ft 32kts
21-May-17 10:25 58.343071 -134.536610 152 1384ft 161kts
21-May-17 10:26 58.324176 -134.597285 297 3132ft 194kts
21-May-17 10:27 58.355947 -134.694282 288 4439ft 236kts
21-May-17 10:28 58.360545 -134.807528 261 7177ft 218kts
21-May-17 10:29 58.347123 -134.910710 225 9664ft 201kts
21-May-17 10:30 58.305756 -134.998623 225 10909ft 257kts
21-May-17 10:31 58.262662 -135.087121 225 12605ft 276kts
21-May-17 10:32 58.204784 -135.204177 225 12999ft 348kts
21-May-17 10:33 58.119248 -135.284096 196 12964ft 355kts
21-May-17 10:34 58.022714 -135.330289 196 12969ft 361kts
21-May-17 10:35 57.927907 -135.374078 196 12962ft 355kts
21-May-17 10:36 57.833274 -135.417362 196 12969ft 355kts
21-May-17 10:37 57.738300 -135.460497 196 12964ft 356kts
21-May-17 10:38 57.652905 -135.498976 196 11899ft 264kts
21-May-17 10:39 57.583931 -135.530148 196 10717ft 247kts
21-May-17 10:40 57.517529 -135.559982 196 9633ft 246kts
21-May-17 10:41 57.451878 -135.589341 195 8535ft 242kts
21-May-17 10:42 57.387238 -135.618192 194 7420ft 236kts
21-May-17 10:43 57.326262 -135.658065 202 6378ft 236kts
21-May-17 10:44 57.267110 -135.707823 199 5270ft 235kts
21-May-17 10:45 57.210889 -135.663866 142 4130ft 242kts
21-May-17 10:46 57.171034 -135.592605 143 3175ft 162kts
21-May-17 10:47 57.144503 -135.543444 138 2364ft 141kts
21-May-17 10:48 57.116170 -135.490338 136 2110ft 148kts
21-May-17 10:49 57.087566 -135.436759 136 1878ft 148kts
21-May-17 10:50 57.056265 -135.382242 171 1361ft 153kts
21-May-17 10:51 57.013632 -135.412219 190 2227ft 174kts
21-May-17 10:52 56.970716 -135.447674 220 2969ft 168kts
21-May-17 10:53 56.930533 -135.487682 202 2990ft 164kts
21-May-17 10:54 56.889684 -135.524251 202 2999ft 164kts
21-May-17 10:55 56.869732 -135.592009 286 2997ft 204kts
21-May-17 10:56 56.919352 -135.654736 322 2998ft 221kts
21-May-17 10:57 56.969645 -135.714175 318 4486ft 226kts
21-May-17 10:58 57.021188 -135.779248 317 4499ft 223kts
21-May-17 10:59 57.071658 -135.845547 315 4501ft 222kts
21-May-17 11:00 57.123989 -135.890788 9 4490ft 236kts
21-May-17 11:01 57.163547 -135.808450 73 4493ft 220kts
21-May-17 11:02 57.182949 -135.705754 84 3591ft 210kts
21-May-17 11:03 57.178749 -135.615713 141 2958ft 158kts
21-May-17 11:04 57.147234 -135.553176 131 2194ft 171kts
21-May-17 11:05 57.117282 -135.494011 132 2133ft 145kts
21-May-17 11:06 57.089500 -135.441029 133 1325ft 140kts
21-May-17 11:07 57.062253 -135.388813 134 182ft 139kts
21-May-17 11:08 57.044450 -135.356792 131 7ft 7kts
21-May-17 11:09 57.043911 -135.355738 313 8ft 12kts
21-May-17 11:10 57.048771 -135.362838 332 11ft 5kts
21-May-17 11:11 57.050856 -135.365492 314 11ft 26kts
21-May-17 11:12 57.052331 -135.366337 75 15ft 1kts
21-May-17 11:13 57.052368 -135.366057 75 17ft 0kts
21-May-17 11:14 57.052368 -135.366057 75 17ft 0kts
21-May-17 11:15 57.052368 -135.366057 75 17ft 0kts

Navigation Log

Ident Type
Flight plan parsing failed, navigation log unavailable